sensor_id;sensor_type;location;lat;lon;timestamp;pressure;altitude;pressure_sealevel;temperature;humidity
43681;BME280;29281;50.356;30.894;2023-02-07T01:39:02;101698.20;;;-1.33;89.68
43681;BME280;29281;50.356;30.894;2023-02-07T01:40:09;101695.59;;;-1.33;90.09
43681;BME280;29281;50.356;30.894;2023-02-07T01:41:13;101692.14;;;-1.29;89.73
43681;BME280;29281;50.356;30.894;2023-02-07T01:42:16;101688.69;;;-1.27;89.66
43681;BME280;29281;50.356;30.894;2023-02-07T01:43:20;101687.82;;;-1.26;90.10
43681;BME280;29281;50.356;30.894;2023-02-07T01:45:34;101692.16;;;-1.28;89.89
43681;BME280;29281;50.356;30.894;2023-02-07T01:46:38;101694.75;;;-1.29;90.01
43681;BME280;29281;50.356;30.894;2023-02-07T01:47:43;101692.14;;;-1.29;90.02
43681;BME280;29281;50.356;30.894;2023-02-07T01:48:47;101696.52;;;-1.25;90.14
43681;BME280;29281;50.356;30.894;2023-02-07T01:49:51;101687.82;;;-1.26;89.50
43681;BME280;29281;50.356;30.894;2023-02-07T01:50:55;101689.55;;;-1.22;89.92
43681;BME280;29281;50.356;30.894;2023-02-07T01:52:04;101686.95;;;-1.22;89.56
43681;BME280;29281;50.356;30.894;2023-02-07T01:53:08;101698.27;;;-1.23;89.28
43681;BME280;29281;50.356;30.894;2023-02-07T01:54:14;101691.25;;;-1.33;90.10
43681;BME280;29281;50.356;30.894;2023-02-07T01:55:21;101695.61;;;-1.30;90.03
43681;BME280;29281;50.356;30.894;2023-02-07T01:56:24;101692.94;;;-1.46;90.12
43681;BME280;29281;50.356;30.894;2023-02-07T01:57:33;101698.13;;;-1.53;90.79
43681;BME280;29281;50.356;30.894;2023-02-07T01:58:37;101692.89;;;-1.56;91.58
43681;BME280;29281;50.356;30.894;2023-02-07T01:59:42;101693.73;;;-1.60;91.80
43681;BME280;29281;50.356;30.894;2023-02-07T02:00:46;101696.39;;;-1.48;92.18
43681;BME280;29281;50.356;30.894;2023-02-07T02:01:49;101689.45;;;-1.46;92.41
43681;BME280;29281;50.356;30.894;2023-02-07T02:02:53;101693.75;;;-1.53;92.34
43681;BME280;29281;50.356;30.894;2023-02-07T02:03:57;101692.89;;;-1.52;92.34
43681;BME280;29281;50.356;30.894;2023-02-07T02:05:01;101695.50;;;-1.50;91.91
43681;BME280;29281;50.356;30.894;2023-02-07T02:06:05;101693.80;;;-1.47;91.75
43681;BME280;29281;50.356;30.894;2023-02-07T02:07:09;101690.28;;;-1.52;92.36
43681;BME280;29281;50.356;30.894;2023-02-07T02:08:14;101694.70;;;-1.42;92.49
43681;BME280;29281;50.356;30.894;2023-02-07T02:09:17;101688.64;;;-1.39;92.67
43681;BME280;29281;50.356;30.894;2023-02-07T02:10:29;101701.66;;;-1.36;91.90
43681;BME280;29281;50.356;30.894;2023-02-07T02:11:40;101703.43;;;-1.30;91.95
43681;BME280;29281;50.356;30.894;2023-02-07T02:13:48;101699.95;;;-1.31;92.04
43681;BME280;29281;50.356;30.894;2023-02-07T02:14:56;101706.05;;;-1.29;92.12
43681;BME280;29281;50.356;30.894;2023-02-07T02:21:12;101706.90;;;-1.31;91.38
43681;BME280;29281;50.356;30.894;2023-02-07T02:26:03;101713.77;;;-1.47;92.17
43681;BME280;29281;50.356;30.894;2023-02-07T02:27:15;101714.67;;;-1.42;92.02
43681;BME280;29281;50.356;30.894;2023-02-07T02:29:44;101702.52;;;-1.42;92.34
43681;BME280;29281;50.356;30.894;2023-02-07T02:35:53;101697.38;;;-1.26;92.22
43681;BME280;29281;50.356;30.894;2023-02-07T02:38:06;101679.14;;;-1.19;91.96
43681;BME280;29281;50.356;30.894;2023-02-07T02:39:07;101686.97;;;-1.17;91.11
43681;BME280;29281;50.356;30.894;2023-02-07T02:41:23;101687.83;;;-1.20;90.54
43681;BME280;29281;50.356;30.894;2023-02-07T02:42:27;101686.95;;;-1.20;90.64
43681;BME280;29281;50.356;30.894;2023-02-07T02:45:00;101689.56;;;-1.20;91.50
43681;BME280;29281;50.356;30.894;2023-02-07T02:45:59;101691.32;;;-1.22;91.05
43681;BME280;29281;50.356;30.894;2023-02-07T02:47:03;101693.03;;;-1.21;91.16
43681;BME280;29281;50.356;30.894;2023-02-07T02:48:06;101693.93;;;-1.16;91.26
43681;BME280;29281;50.356;30.894;2023-02-07T02:49:12;101689.57;;;-1.19;91.03
43681;BME280;29281;50.356;30.894;2023-02-07T02:50:18;101695.66;;;-1.23;90.75
43681;BME280;29281;50.356;30.894;2023-02-07T02:51:23;101695.66;;;-1.24;90.96
43681;BME280;29281;50.356;30.894;2023-02-07T02:52:26;101691.27;;;-1.31;90.53
43681;BME280;29281;50.356;30.894;2023-02-07T02:53:34;101695.59;;;-1.33;90.52
43681;BME280;29281;50.356;30.894;2023-02-07T02:54:39;101691.25;;;-1.33;91.04
43681;BME280;29281;50.356;30.894;2023-02-07T02:58:27;101691.30;;;-1.25;91.69
43681;BME280;29281;50.356;30.894;2023-02-07T02:59:47;101693.05;;;-1.23;91.50
43681;BME280;29281;50.356;30.894;2023-02-07T03:00:56;101697.38;;;-1.20;91.51
43681;BME280;29281;50.356;30.894;2023-02-07T03:04:29;101694.82;;;-1.13;90.43
43681;BME280;29281;50.356;30.894;2023-02-07T03:06:59;101686.97;;;-1.17;90.07
43681;BME280;29281;50.356;30.894;2023-02-07T03:08:03;101690.42;;;-1.21;90.69
43681;BME280;29281;50.356;30.894;2023-02-07T03:09:15;101692.98;;;-1.33;92.18
43681;BME280;29281;50.356;30.894;2023-02-07T03:11:31;101692.98;;;-1.38;92.48
43681;BME280;29281;50.356;30.894;2023-02-07T03:15:09;101696.44;;;-1.36;92.95
43681;BME280;29281;50.356;30.894;2023-02-07T03:16:16;101690.33;;;-1.46;92.47
43681;BME280;29281;50.356;30.894;2023-02-07T03:17:23;101691.22;;;-1.37;92.29
43681;BME280;29281;50.356;30.894;2023-02-07T03:19:34;101686.93;;;-1.29;91.69
43681;BME280;29281;50.356;30.894;2023-02-07T03:20:42;101690.38;;;-1.35;91.57
43681;BME280;29281;50.356;30.894;2023-02-07T03:21:44;101690.38;;;-1.33;91.25
43681;BME280;29281;50.356;30.894;2023-02-07T03:22:49;101680.82;;;-1.34;91.12
43681;BME280;29281;50.356;30.894;2023-02-07T03:23:53;101678.27;;;-1.25;90.61
43681;BME280;29281;50.356;30.894;2023-02-07T03:25:00;101680.84;;;-1.31;90.32
43681;BME280;29281;50.356;30.894;2023-02-07T03:26:04;101683.45;;;-1.30;90.46
43681;BME280;29281;50.356;30.894;2023-02-07T03:27:08;101690.41;;;-1.29;90.62
43681;BME280;29281;50.356;30.894;2023-02-07T03:28:13;101679.98;;;-1.29;91.36
43681;BME280;29281;50.356;30.894;2023-02-07T03:29:19;101690.38;;;-1.33;91.19
43681;BME280;29281;50.356;30.894;2023-02-07T03:30:23;101685.16;;;-1.35;90.91
43681;BME280;29281;50.356;30.894;2023-02-07T03:31:27;101691.23;;;-1.36;91.11
43681;BME280;29281;50.356;30.894;2023-02-07T03:32:37;101692.94;;;-1.46;91.20
43681;BME280;29281;50.356;30.894;2023-02-07T03:33:37;101697.28;;;-1.45;91.38
43681;BME280;29281;50.356;30.894;2023-02-07T03:34:41;101688.59;;;-1.45;91.41
43681;BME280;29281;50.356;30.894;2023-02-07T03:35:48;101691.20;;;-1.45;91.77
43681;BME280;29281;50.356;30.894;2023-02-07T03:36:54;101689.50;;;-1.40;91.66
43681;BME280;29281;50.356;30.894;2023-02-07T03:37:58;101687.77;;;-1.35;91.47
43681;BME280;29281;50.356;30.894;2023-02-07T03:39:02;101687.77;;;-1.33;91.30
43681;BME280;29281;50.356;30.894;2023-02-07T03:40:06;101685.99;;;-1.45;91.86
43681;BME280;29281;50.356;30.894;2023-02-07T03:41:13;101688.61;;;-1.44;91.49
43681;BME280;29281;50.356;30.894;2023-02-07T03:43:31;101683.41;;;-1.42;92.48
43681;BME280;29281;50.356;30.894;2023-02-07T03:44:35;101688.59;;;-1.45;92.54
43681;BME280;29281;50.356;30.894;2023-02-07T03:45:41;101689.48;;;-1.43;92.33
43681;BME280;29281;50.356;30.894;2023-02-07T03:46:48;101690.38;;;-1.39;92.50
43681;BME280;29281;50.356;30.894;2023-02-07T03:47:50;101693.84;;;-1.39;92.21
43681;BME280;29281;50.356;30.894;2023-02-07T03:48:53;101694.67;;;-1.46;92.49
43681;BME280;29281;50.356;30.894;2023-02-07T03:49:57;101690.36;;;-1.41;92.88
43681;BME280;29281;50.356;30.894;2023-02-07T03:51:00;101695.59;;;-1.33;92.68
43681;BME280;29281;50.356;30.894;2023-02-07T03:52:04;101703.41;;;-1.33;91.88
43681;BME280;29281;50.356;30.894;2023-02-07T03:53:07;101702.53;;;-1.34;91.61
43681;BME280;29281;50.356;30.894;2023-02-07T03:54:10;101697.34;;;-1.31;91.61
43681;BME280;29281;50.356;30.894;2023-02-07T03:55:12;101697.31;;;-1.40;91.65
43681;BME280;29281;50.356;30.894;2023-02-07T03:56:16;101699.06;;;-1.34;91.92
43681;BME280;29281;50.356;30.894;2023-02-07T03:57:18;101699.04;;;-1.37;92.53
43681;BME280;29281;50.356;30.894;2023-02-07T03:58:22;101693.86;;;-1.33;91.85
43681;BME280;29281;50.356;30.894;2023-02-07T03:59:28;101697.34;;;-1.32;91.57
43681;BME280;29281;50.356;30.894;2023-02-07T04:00:32;101692.11;;;-1.34;91.57
43681;BME280;29281;50.356;30.894;2023-02-07T04:01:36;101695.59;;;-1.38;92.59
43681;BME280;29281;50.356;30.894;2023-02-07T04:02:46;101700.73;;;-1.53;94.09
43681;BME280;29281;50.356;30.894;2023-02-07T04:03:49;101706.81;;;-1.48;93.18
43681;BME280;29281;50.356;30.894;2023-02-07T04:04:53;101704.20;;;-1.48;93.34
43681;BME280;29281;50.356;30.894;2023-02-07T04:05:55;101707.70;;;-1.45;93.31
43681;BME280;29281;50.356;30.894;2023-02-07T04:07:01;101705.09;;;-1.46;93.78
43681;BME280;29281;50.356;30.894;2023-02-07T04:08:04;101705.98;;;-1.44;94.15
43681;BME280;29281;50.356;30.894;2023-02-07T04:09:09;101712.02;;;-1.48;94.46
43681;BME280;29281;50.356;30.894;2023-02-07T04:10:13;101700.77;;;-1.43;93.79
43681;BME280;29281;50.356;30.894;2023-02-07T04:11:16;101710.36;;;-1.38;93.08
43681;BME280;29281;50.356;30.894;2023-02-07T04:12:20;101706.02;;;-1.33;93.00
43681;BME280;29281;50.356;30.894;2023-02-07T04:13:23;101702.56;;;-1.31;92.74
43681;BME280;29281;50.356;30.894;2023-02-07T04:14:27;101709.47;;;-1.36;92.60
43681;BME280;29281;50.356;30.894;2023-02-07T04:15:31;101715.57;;;-1.38;92.16
43681;BME280;29281;50.356;30.894;2023-02-07T04:16:34;101709.46;;;-1.37;92.15
43681;BME280;29281;50.356;30.894;2023-02-07T04:17:37;101714.66;;;-1.45;92.26
43681;BME280;29281;50.356;30.894;2023-02-07T04:18:40;101715.57;;;-1.38;92.36
43681;BME280;29281;50.356;30.894;2023-02-07T04:19:44;101714.70;;;-1.33;92.42
43681;BME280;29281;50.356;30.894;2023-02-07T04:20:48;101721.66;;;-1.33;92.56
43681;BME280;29281;50.356;30.894;2023-02-07T04:21:52;101719.91;;;-1.34;92.27
43681;BME280;29281;50.356;30.894;2023-02-07T04:22:55;101722.45;;;-1.47;92.21
43681;BME280;29281;50.356;30.894;2023-02-07T04:23:58;101721.66;;;-1.38;92.24
43681;BME280;29281;50.356;30.894;2023-02-07T04:25:02;101728.58;;;-1.42;92.00
43681;BME280;29281;50.356;30.894;2023-02-07T04:26:05;101720.77;;;-1.40;92.03
43681;BME280;29281;50.356;30.894;2023-02-07T04:27:12;101732.94;;;-1.39;92.94
43681;BME280;29281;50.356;30.894;2023-02-07T04:28:14;101728.58;;;-1.42;93.26
43681;BME280;29281;50.356;30.894;2023-02-07T04:29:17;101735.55;;;-1.34;92.93
43681;BME280;29281;50.356;30.894;2023-02-07T04:30:21;101728.56;;;-1.43;92.62
43681;BME280;29281;50.356;30.894;2023-02-07T04:31:25;101731.11;;;-1.51;92.08
43681;BME280;29281;50.356;30.894;2023-02-07T04:32:28;101732.00;;;-1.49;92.04
43681;BME280;29281;50.356;30.894;2023-02-07T04:33:32;101725.94;;;-1.46;92.10
43681;BME280;29281;50.356;30.894;2023-02-07T04:34:34;101737.25;;;-1.43;92.05
43681;BME280;29281;50.356;30.894;2023-02-07T04:35:37;101730.28;;;-1.45;93.63
43681;BME280;29281;50.356;30.894;2023-02-07T04:36:41;101731.17;;;-1.43;92.94
43681;BME280;29281;50.356;30.894;2023-02-07T04:37:43;101733.77;;;-1.45;93.60
43681;BME280;29281;50.356;30.894;2023-02-07T04:38:46;101731.98;;;-1.50;93.33
43681;BME280;29281;50.356;30.894;2023-02-07T04:39:49;101739.80;;;-1.50;93.30
43681;BME280;29281;50.356;30.894;2023-02-07T04:40:57;101727.64;;;-1.54;93.68
43681;BME280;29281;50.356;30.894;2023-02-07T04:42:02;101733.72;;;-1.54;93.01
43681;BME280;29281;50.356;30.894;2023-02-07T04:43:05;101733.65;;;-1.63;94.18
43681;BME280;29281;50.356;30.894;2023-02-07T04:44:09;101737.18;;;-1.52;93.78
43681;BME280;29281;50.356;30.894;2023-02-07T04:45:11;101736.33;;;-1.54;93.67
43681;BME280;29281;50.356;30.894;2023-02-07T04:46:15;101738.91;;;-1.52;93.02
43681;BME280;29281;50.356;30.894;2023-02-07T04:47:19;101746.75;;;-1.54;93.40
43681;BME280;29281;50.356;30.894;2023-02-07T04:48:21;101743.25;;;-1.53;92.93
43681;BME280;29281;50.356;30.894;2023-02-07T04:49:24;101744.14;;;-1.51;92.39
43681;BME280;29281;50.356;30.894;2023-02-07T04:50:27;101748.48;;;-1.51;92.44
43681;BME280;29281;50.356;30.894;2023-02-07T04:51:31;101751.97;;;-1.49;92.61
43681;BME280;29281;50.356;30.894;2023-02-07T04:52:34;101753.75;;;-1.44;92.05
43681;BME280;29281;50.356;30.894;2023-02-07T04:53:37;101747.70;;;-1.39;92.42
43681;BME280;29281;50.356;30.894;2023-02-07T04:54:43;101758.13;;;-1.39;92.69
43681;BME280;29281;50.356;30.894;2023-02-07T04:55:47;101745.11;;;-1.38;91.68
43681;BME280;29281;50.356;30.894;2023-02-07T04:56:50;101746.85;;;-1.32;91.29
43681;BME280;29281;50.356;30.894;2023-02-07T04:57:55;101757.23;;;-1.37;90.89
43681;BME280;29281;50.356;30.894;2023-02-07T04:59:04;101758.90;;;-1.51;91.00
43681;BME280;29281;50.356;30.894;2023-02-07T05:00:07;101762.37;;;-1.51;91.24
43681;BME280;29281;50.356;30.894;2023-02-07T05:01:10;101763.25;;;-1.50;92.43
43681;BME280;29281;50.356;30.894;2023-02-07T05:02:14;101757.20;;;-1.46;92.06
43681;BME280;29281;50.356;30.894;2023-02-07T05:03:17;101765.02;;;-1.46;91.96
43681;BME280;29281;50.356;30.894;2023-02-07T05:04:20;101768.53;;;-1.41;91.29
43681;BME280;29281;50.356;30.894;2023-02-07T05:05:23;101758.91;;;-1.50;91.79
43681;BME280;29281;50.356;30.894;2023-02-07T05:06:26;101770.17;;;-1.52;91.48
43681;BME280;29281;50.356;30.894;2023-02-07T05:07:29;101775.38;;;-1.57;91.54
43681;BME280;29281;50.356;30.894;2023-02-07T05:08:34;101772.73;;;-1.61;91.30
43681;BME280;29281;50.356;30.894;2023-02-07T05:09:37;101771.88;;;-1.60;91.27
43681;BME280;29281;50.356;30.894;2023-02-07T05:10:43;101771.91;;;-1.57;91.07
43681;BME280;29281;50.356;30.894;2023-02-07T05:11:47;101770.13;;;-1.61;91.06
43681;BME280;29281;50.356;30.894;2023-02-07T05:12:49;101779.62;;;-1.68;91.48
43681;BME280;29281;50.356;30.894;2023-02-07T05:13:53;101784.88;;;-1.63;91.52
43681;BME280;29281;50.356;30.894;2023-02-07T05:14:56;101784.84;;;-1.66;91.61
43681;BME280;29281;50.356;30.894;2023-02-07T05:16:01;101784.83;;;-1.68;91.96
43681;BME280;29281;50.356;30.894;2023-02-07T05:17:04;101786.56;;;-1.71;91.93
43681;BME280;29281;50.356;30.894;2023-02-07T05:18:09;101791.79;;;-1.70;91.75
43681;BME280;29281;50.356;30.894;2023-02-07T05:19:13;101786.60;;;-1.64;91.23
43681;BME280;29281;50.356;30.894;2023-02-07T05:20:16;101788.31;;;-1.67;91.16
43681;BME280;29281;50.356;30.894;2023-02-07T05:21:23;101794.29;;;-1.84;92.40
43681;BME280;29281;50.356;30.894;2023-02-07T05:22:26;101789.11;;;-1.78;92.47
43681;BME280;29281;50.356;30.894;2023-02-07T05:23:29;101800.38;;;-1.79;92.27
43681;BME280;29281;50.356;30.894;2023-02-07T05:24:31;101794.31;;;-1.78;92.78
43681;BME280;29281;50.356;30.894;2023-02-07T05:25:36;101802.13;;;-1.78;92.72
43681;BME280;29281;50.356;30.894;2023-02-07T05:26:41;101796.13;;;-1.70;91.99
43681;BME280;29281;50.356;30.894;2023-02-07T05:27:44;101799.62;;;-1.68;91.84
43681;BME280;29281;50.356;30.894;2023-02-07T05:28:48;101799.63;;;-1.64;91.57
43681;BME280;29281;50.356;30.894;2023-02-07T05:29:50;101803.06;;;-1.71;91.20
43681;BME280;29281;50.356;30.894;2023-02-07T05:30:56;101803.98;;;-1.63;91.09
43681;BME280;29281;50.356;30.894;2023-02-07T05:31:59;101804.83;;;-1.65;90.66
43681;BME280;29281;50.356;30.894;2023-02-07T05:33:20;101800.47;;;-1.69;91.78
43681;BME280;29281;50.356;30.894;2023-02-07T05:34:23;101801.34;;;-1.66;91.59
43681;BME280;29281;50.356;30.894;2023-02-07T05:35:26;101799.62;;;-1.68;91.69
43681;BME280;29281;50.356;30.894;2023-02-07T05:36:29;101800.56;;;-1.57;91.85
43681;BME280;29281;50.356;30.894;2023-02-07T05:37:36;101799.70;;;-1.52;91.16
43681;BME280;29281;50.356;30.894;2023-02-07T05:38:42;101797.13;;;-1.53;90.35
43681;BME280;29281;50.356;30.894;2023-02-07T05:39:44;101809.28;;;-1.49;89.94
43681;BME280;29281;50.356;30.894;2023-02-07T05:40:47;101802.36;;;-1.47;90.15
43681;BME280;29281;50.356;30.894;2023-02-07T05:41:52;101802.34;;;-1.49;90.41
43681;BME280;29281;50.356;30.894;2023-02-07T05:42:55;101802.34;;;-1.49;90.66
43681;BME280;29281;50.356;30.894;2023-02-07T05:43:58;101812.73;;;-1.52;90.72
43681;BME280;29281;50.356;30.894;2023-02-07T05:45:03;101809.31;;;-1.46;90.19
43681;BME280;29281;50.356;30.894;2023-02-07T05:46:07;101809.27;;;-1.55;90.30
43681;BME280;29281;50.356;30.894;2023-02-07T05:47:10;101802.33;;;-1.50;90.63
43681;BME280;29281;50.356;30.894;2023-02-07T05:48:15;101814.52;;;-1.46;90.65
43681;BME280;29281;50.356;30.894;2023-02-07T05:49:21;101816.24;;;-1.48;90.17
43681;BME280;29281;50.356;30.894;2023-02-07T05:50:26;101823.17;;;-1.53;90.88
43681;BME280;29281;50.356;30.894;2023-02-07T05:51:31;101819.73;;;-1.46;90.66
43681;BME280;29281;50.356;30.894;2023-02-07T05:52:35;101820.64;;;-1.43;90.40
43681;BME280;29281;50.356;30.894;2023-02-07T05:53:39;101815.39;;;-1.46;89.91
43681;BME280;29281;50.356;30.894;2023-02-07T05:54:41;101813.65;;;-1.47;89.69
43681;BME280;29281;50.356;30.894;2023-02-07T05:55:49;101820.64;;;-1.43;88.98
43681;BME280;29281;50.356;30.894;2023-02-07T05:56:52;101816.33;;;-1.39;88.62
43681;BME280;29281;50.356;30.894;2023-02-07T05:57:55;101816.27;;;-1.45;87.90
43681;BME280;29281;50.356;30.894;2023-02-07T05:59:03;101817.00;;;-1.63;89.72
43681;BME280;29281;50.356;30.894;2023-02-07T06:00:08;101823.15;;;-1.56;89.08
43681;BME280;29281;50.356;30.894;2023-02-07T06:01:13;101824.02;;;-1.56;89.64
43681;BME280;29281;50.356;30.894;2023-02-07T06:02:20;101825.78;;;-1.50;89.13
43681;BME280;29281;50.356;30.894;2023-02-07T06:03:23;101822.30;;;-1.51;89.48
43681;BME280;29281;50.356;30.894;2023-02-07T06:04:26;101825.80;;;-1.49;89.06
43681;BME280;29281;50.356;30.894;2023-02-07T06:05:28;101825.77;;;-1.52;88.56
43681;BME280;29281;50.356;30.894;2023-02-07T06:06:33;101823.13;;;-1.58;88.68
43681;BME280;29281;50.356;30.894;2023-02-07T06:07:36;101814.51;;;-1.48;87.92
43681;BME280;29281;50.356;30.894;2023-02-07T06:08:39;101820.69;;;-1.33;87.45
43681;BME280;29281;50.356;30.894;2023-02-07T06:09:42;101825.12;;;-1.17;86.81
43681;BME280;29281;50.356;30.894;2023-02-07T06:10:46;101824.24;;;-1.19;86.94
43681;BME280;29281;50.356;30.894;2023-02-07T06:11:50;101828.66;;;-1.06;86.57
43681;BME280;29281;50.356;30.894;2023-02-07T06:12:53;101821.73;;;-1.02;85.50
43681;BME280;29281;50.356;30.894;2023-02-07T06:13:56;101830.42;;;-1.03;84.86
43681;BME280;29281;50.356;30.894;2023-02-07T06:14:59;101825.19;;;-1.07;84.79
43681;BME280;29281;50.356;30.894;2023-02-07T06:16:05;101833.09;;;-0.90;84.53
43681;BME280;29281;50.356;30.894;2023-02-07T06:17:10;101827.91;;;-0.85;83.72
43681;BME280;29281;50.356;30.894;2023-02-07T06:18:13;101835.76;;;-0.82;83.37
43681;BME280;29281;50.356;30.894;2023-02-07T06:19:16;101837.48;;;-0.84;83.77
43681;BME280;29281;50.356;30.894;2023-02-07T06:20:19;101833.16;;;-0.75;82.80
43681;BME280;29281;50.356;30.894;2023-02-07T06:21:24;101837.52;;;-0.78;82.60
43681;BME280;29281;50.356;30.894;2023-02-07T06:22:30;101841.88;;;-0.73;82.26
43681;BME280;29281;50.356;30.894;2023-02-07T06:23:34;101837.54;;;-0.71;82.29
43681;BME280;29281;50.356;30.894;2023-02-07T06:24:37;101835.77;;;-0.76;81.98
43681;BME280;29281;50.356;30.894;2023-02-07T06:25:40;101843.53;;;-0.94;83.09
43681;BME280;29281;50.356;30.894;2023-02-07T06:26:43;101840.92;;;-0.94;83.37
43681;BME280;29281;50.356;30.894;2023-02-07T06:27:48;101837.52;;;-0.80;82.89
43681;BME280;29281;50.356;30.894;2023-02-07T06:28:51;101836.70;;;-0.66;81.56
43681;BME280;29281;50.356;30.894;2023-02-07T06:29:54;101836.75;;;-0.53;81.43
43681;BME280;29281;50.356;30.894;2023-02-07T06:30:57;101843.74;;;-0.40;81.17
43681;BME280;29281;50.356;30.894;2023-02-07T06:32:02;101845.55;;;-0.19;79.77
43681;BME280;29281;50.356;30.894;2023-02-07T06:33:05;101850.77;;;-0.13;79.13
43681;BME280;29281;50.356;30.894;2023-02-07T06:34:08;101852.55;;;-0.04;78.18
43681;BME280;29281;50.356;30.894;2023-02-07T06:35:10;101862.15;;;0.21;77.72
43681;BME280;29281;50.356;30.894;2023-02-07T06:36:15;101857.77;;;0.16;76.73
43681;BME280;29281;50.356;30.894;2023-02-07T06:37:18;101858.67;;;0.38;75.83
43681;BME280;29281;50.356;30.894;2023-02-07T06:38:21;101858.66;;;0.33;75.69
43681;BME280;29281;50.356;30.894;2023-02-07T06:39:24;101853.44;;;0.47;74.81
43681;BME280;29281;50.356;30.894;2023-02-07T06:40:27;101848.20;;;0.63;74.35
43681;BME280;29281;50.356;30.894;2023-02-07T06:41:30;101853.41;;;0.83;73.45
43681;BME280;29281;50.356;30.894;2023-02-07T06:42:32;101863.00;;;0.77;73.25
43681;BME280;29281;50.356;30.894;2023-02-07T06:43:37;101858.66;;;0.66;73.28
43681;BME280;29281;50.356;30.894;2023-02-07T06:44:40;101864.75;;;0.88;72.58
43681;BME280;29281;50.356;30.894;2023-02-07T06:45:44;101865.61;;;0.80;72.92
43681;BME280;29281;50.356;30.894;2023-02-07T06:46:50;101860.31;;;1.12;72.34
43681;BME280;29281;50.356;30.894;2023-02-07T06:47:53;101875.05;;;1.46;70.63
43681;BME280;29281;50.356;30.894;2023-02-07T06:48:56;101876.72;;;1.64;69.01
43681;BME280;29281;50.356;30.894;2023-02-07T06:49:59;101875.05;;;1.38;68.97
43681;BME280;29281;50.356;30.894;2023-02-07T06:51:06;101868.06;;;1.48;69.56
43681;BME280;29281;50.356;30.894;2023-02-07T06:52:10;101869.67;;;1.73;68.49
43681;BME280;29281;50.356;30.894;2023-02-07T06:53:13;101870.61;;;1.63;68.21
43681;BME280;29281;50.356;30.894;2023-02-07T06:54:17;101875.78;;;1.75;67.68
43681;BME280;29281;50.356;30.894;2023-02-07T06:55:20;101877.52;;;1.81;68.08
43681;BME280;29281;50.356;30.894;2023-02-07T06:56:30;101874.03;;;1.74;68.33
43681;BME280;29281;50.356;30.894;2023-02-07T06:57:35;101883.47;;;2.06;66.78
43681;BME280;29281;50.356;30.894;2023-02-07T06:58:38;101880.86;;;2.03;66.30
43681;BME280;29281;50.356;30.894;2023-02-07T06:59:43;101889.68;;;1.88;66.76
43681;BME280;29281;50.356;30.894;2023-02-07T07:00:46;101895.80;;;1.84;66.70
43681;BME280;29281;50.356;30.894;2023-02-07T07:01:49;101891.48;;;1.82;66.84
43681;BME280;29281;50.356;30.894;2023-02-07T07:03:02;101894.84;;;2.02;66.38
43681;BME280;29281;50.356;30.894;2023-02-07T07:03:58;101896.55;;;2.10;65.65
43681;BME280;29281;50.356;30.894;2023-02-07T07:05:00;101897.66;;;1.65;66.14
43681;BME280;29281;50.356;30.894;2023-02-07T07:06:03;101884.73;;;1.15;68.36
43681;BME280;29281;50.356;30.894;2023-02-07T07:07:08;101895.27;;;0.69;69.50
43681;BME280;29281;50.356;30.894;2023-02-07T07:08:11;101885.70;;;0.46;70.84
43681;BME280;29281;50.356;30.894;2023-02-07T07:09:17;101890.05;;;0.71;70.30
43681;BME280;29281;50.356;30.894;2023-02-07T07:10:21;101892.59;;;1.14;69.04
43681;BME280;29281;50.356;30.894;2023-02-07T07:11:24;101890.00;;;0.98;68.99
43681;BME280;29281;50.356;30.894;2023-02-07T07:12:28;101893.52;;;0.87;69.83
43681;BME280;29281;50.356;30.894;2023-02-07T07:13:31;101890.84;;;1.08;68.91
43681;BME280;29281;50.356;30.894;2023-02-07T07:14:36;101892.55;;;1.29;68.89
43681;BME280;29281;50.356;30.894;2023-02-07T07:15:40;101888.95;;;1.56;68.22
43681;BME280;29281;50.356;30.894;2023-02-07T07:16:44;101894.84;;;2.00;66.04
43681;BME280;29281;50.356;30.894;2023-02-07T07:17:47;101906.05;;;2.28;64.51
43681;BME280;29281;50.356;30.894;2023-02-07T07:18:50;101909.56;;;2.24;64.84
43681;BME280;29281;50.356;30.894;2023-02-07T07:19:54;101905.23;;;2.17;64.05
43681;BME280;29281;50.356;30.894;2023-02-07T07:21:01;101915.71;;;2.17;64.03
43681;BME280;29281;50.356;30.894;2023-02-07T07:22:03;101918.31;;;2.22;64.28
43681;BME280;29281;50.356;30.894;2023-02-07T07:23:06;101916.56;;;2.24;63.62
43681;BME280;29281;50.356;30.894;2023-02-07T07:24:10;101917.13;;;2.65;62.46
43681;BME280;29281;50.356;30.894;2023-02-07T07:25:13;101918.72;;;2.85;61.80
43681;BME280;29281;50.356;30.894;2023-02-07T07:26:17;101928.97;;;3.09;61.09
43681;BME280;29281;50.356;30.894;2023-02-07T07:27:21;101930.50;;;3.33;60.56
43681;BME280;29281;50.356;30.894;2023-02-07T07:28:24;101927.89;;;3.31;60.05
43681;BME280;29281;50.356;30.894;2023-02-07T07:29:27;101928.24;;;2.93;60.53
43681;BME280;29281;50.356;30.894;2023-02-07T07:30:32;101925.85;;;2.67;61.49
43681;BME280;29281;50.356;30.894;2023-02-07T07:31:36;101933.50;;;2.92;61.06
43681;BME280;29281;50.356;30.894;2023-02-07T07:32:42;101936.30;;;2.75;61.00
43681;BME280;29281;50.356;30.894;2023-02-07T07:33:45;101939.28;;;2.22;62.10
43681;BME280;29281;50.356;30.894;2023-02-07T07:34:48;101938.33;;;2.35;62.65
43681;BME280;29281;50.356;30.894;2023-02-07T07:35:58;101946.98;;;2.46;62.23
43681;BME280;29281;50.356;30.894;2023-02-07T07:37:02;101941.04;;;2.20;62.72
43681;BME280;29281;50.356;30.894;2023-02-07T07:38:06;101942.86;;;2.08;63.50
43681;BME280;29281;50.356;30.894;2023-02-07T07:39:09;101945.39;;;2.25;63.33
43681;BME280;29281;50.356;30.894;2023-02-07T07:40:14;101945.55;;;1.96;63.58
43681;BME280;29281;50.356;30.894;2023-02-07T07:41:17;101942.92;;;1.98;63.73
43681;BME280;29281;50.356;30.894;2023-02-07T07:42:20;101944.52;;;2.25;63.03
43681;BME280;29281;50.356;30.894;2023-02-07T07:43:29;101948.69;;;2.55;62.61
43681;BME280;29281;50.356;30.894;2023-02-07T07:44:32;101941.55;;;2.75;61.72
43681;BME280;29281;50.356;30.894;2023-02-07T07:45:38;101942.78;;;3.29;60.30